Time;durP1;ratioP1;P1;durP2;ratioP2;P2;SDS_P1;SDS_P2;PMS_P1;PMS_P2;Temp;Humidity;BMP_temperature;BMP_pressure;BME280_temperature;BME280_humidity;BME280_pressure;Samples;Min_cycle;Max_cycle;Signal;HPM_P1;HPM_P2
2021/10/21 00:01:08;;;;;;;;;;;;;;;;;;5134087;27;19976;-71
2021/10/21 00:03:34;;;;;;;;;;;;;;;;;;5134532;27;19927;-71
2021/10/21 00:06:00;;;;;;;;;;;;;;;;;;5134202;27;20304;-71
2021/10/21 00:08:27;;;;;;;;;;;;;;;;;;5133646;27;19923;-71
2021/10/21 00:10:53;;;;;;;;;;;;;;;;;;5133633;27;20282;-70
2021/10/21 00:13:20;;;;;;;;;;;;;;;;;;5133706;27;19924;-70
2021/10/21 00:15:46;;;;;;;;;;;;;;;;;;5133918;27;20014;-70
2021/10/21 00:18:12;;;;;;;;;;;;;;;;;;5133769;27;19966;-70
2021/10/21 00:20:39;;;;;;;;;;;;;;;;;;5134253;27;19923;-70
2021/10/21 00:23:05;;;;;;;;;;;;;;;;;;5133867;27;20370;-68
2021/10/21 00:25:31;;;;;;;;;;;;;;;;;;5133380;27;19923;-68
2021/10/21 00:27:58;;;;;;;;;;;;;;;;;;5134129;27;19923;-69
2021/10/21 00:30:25;;;;;;;;;;;;;;;;;;5133556;27;19930;-69
2021/10/21 00:32:51;;;;;;;;;;;;;;;;;;5133787;27;20018;-68
2021/10/21 00:35:17;;;;;;;;;;;;;;;;;;5133620;27;19924;-68
2021/10/21 00:37:44;;;;;;;;;;;;;;;;;;5133728;27;19931;-69
2021/10/21 00:40:10;;;;;;;;;;;;;;;;;;5133465;27;19923;-69
2021/10/21 00:42:36;;;;;;;;;;;;;;;;;;5133903;27;19924;-69
2021/10/21 00:45:02;;;;;;;;;;;;;;;;;;5133581;27;20373;-69
2021/10/21 00:47:29;;;;;;;;;;;;;;;;;;5133493;27;19928;-70
2021/10/21 00:49:55;;;;;;;;;;;;;;;;;;5133305;27;19927;-70
2021/10/21 00:52:22;;;;;;;;;;;;;;;;;;5133153;27;19923;-70
2021/10/21 00:54:48;;;;;;;;;;;;;;;;;;5133734;27;19923;-70
2021/10/21 00:57:14;;;;;;;;;;;;;;;;;;5133722;27;19923;-70
2021/10/21 00:59:41;;;;;;;;;;;;;;;;;;5133358;28;19993;-70
2021/10/21 01:02:07;;;;;;;;;;;;;;;;;;5133191;28;20373;-70
2021/10/21 01:04:34;;;;;;;;;;;;;;;;;;5133351;28;19930;-69
2021/10/21 01:07:00;;;;;;;;;;;;;;;;;;5133360;28;19923;-70
2021/10/21 01:09:26;;;;;;;;;;;;;;;;;;5133287;28;19946;-69
2021/10/21 01:11:52;;;;;;;;;;;;;;;;;;5133220;28;19924;-70
2021/10/21 01:14:19;;;;;;;;;;;;;;;;;;5133335;28;19923;-69
2021/10/21 01:16:45;;;;;;;;;;;;;;;;;;5133177;28;20266;-70
2021/10/21 01:19:11;;;;;;;;;;;;;;;;;;5132934;28;19928;-70
2021/10/21 01:21:38;;;;;;;;;;;;;;;;;;5134780;27;19923;-70
2021/10/21 01:24:04;;;;;;;;;;;;;;;;;;5137324;27;19931;-70
2021/10/21 01:26:30;;;;;;;;;;;;;;;;;;5137377;27;19931;-70
2021/10/21 01:28:56;;;;;;;;;;;;;;;;;;5137164;27;20377;-70
2021/10/21 01:31:23;;;;;;;;;;;;;;;;;;5137201;27;19931;-70
2021/10/21 01:33:49;;;;;;;;;;;;;;;;;;5137091;27;20389;-68
2021/10/21 01:36:15;;;;;;;;;;;;;;;;;;5137144;27;19928;-69
2021/10/21 01:38:42;;;;;;;;;;;;;;;;;;5137342;27;19937;-69
2021/10/21 01:41:09;;;;;;;;;;;;;;;;;;5136791;27;19923;-69
2021/10/21 01:43:35;;;;;;;;;;;;;;;;;;5137160;27;19923;-69
2021/10/21 01:46:01;;;;;;;;;;;;;;;;;;5137251;27;19923;-69
2021/10/21 01:48:28;;;;;;;;;;;;;;;;;;5136542;27;20400;-69
2021/10/21 01:50:54;;;;;;;;;;;;;;;;;;5136772;27;19923;-69
2021/10/21 01:53:20;;;;;;;;;;;;;;;;;;5136848;27;19924;-70
2021/10/21 01:55:46;;;;;;;;;;;;;;;;;;5136659;27;19934;-70
2021/10/21 01:58:13;;;;;;;;;;;;;;;;;;5136161;27;19924;-70
2021/10/21 02:00:39;;;;;;;;;;;;;;;;;;5136908;27;19939;-70
2021/10/21 02:03:05;;;;;;;;;;;;;;;;;;5136644;27;20377;-70
2021/10/21 02:05:32;;;;;;;;;;;;;;;;;;5136296;27;19931;-70
2021/10/21 02:07:58;;;;;;;;;;;;;;;;;;5136838;27;19930;-70
2021/10/21 02:10:24;;;;;;;;;;;;;;;;;;5136145;27;20370;-70
2021/10/21 02:12:51;;;;;;;;;;;;;;;;;;5136530;27;19924;-70
2021/10/21 02:15:17;;;;;;;;;;;;;;;;;;5136362;27;19933;-70
2021/10/21 02:17:43;;;;;;;;;;;;;;;;;;5136296;27;20392;-70
2021/10/21 02:20:10;;;;;;;;;;;;;;;;;;5135916;27;20397;-70
2021/10/21 02:22:36;;;;;;;;;;;;;;;;;;5136152;27;19924;-70
2021/10/21 02:25:02;;;;;;;;;;;;;;;;;;5136417;27;19927;-70
2021/10/21 02:27:29;;;;;;;;;;;;;;;;;;5135872;27;19927;-70
2021/10/21 02:29:55;;;;;;;;;;;;;;;;;;5136065;27;19924;-68
2021/10/21 02:32:21;;;;;;;;;;;;;;;;;;5135446;27;19923;-70
2021/10/21 02:34:48;;;;;;;;;;;;;;;;;;5135869;27;20400;-68
2021/10/21 02:37:14;;;;;;;;;;;;;;;;;;5136007;27;19924;-68
2021/10/21 02:39:40;;;;;;;;;;;;;;;;;;5136202;27;20010;-68
2021/10/21 02:42:06;;;;;;;;;;;;;;;;;;5135743;27;20408;-68
2021/10/21 02:44:33;;;;;;;;;;;;;;;;;;5135554;27;19930;-68
2021/10/21 02:46:59;;;;;;;;;;;;;;;;;;5135939;27;19943;-69
2021/10/21 02:49:25;;;;;;;;;;;;;;;;;;5135356;27;20285;-68
2021/10/21 02:51:52;;;;;;;;;;;;;;;;;;5135588;27;19938;-69
2021/10/21 02:54:18;;;;;;;;;;;;;;;;;;5135680;27;19931;-69
2021/10/21 02:56:44;;;;;;;;;;;;;;;;;;5135568;27;19924;-68
2021/10/21 02:59:10;;;;;;;;;;;;;;;;;;5135167;27;19931;-68
2021/10/21 03:01:37;;;;;;;;;;;;;;;;;;5135469;27;20096;-68
2021/10/21 03:04:03;;;;;;;;;;;;;;;;;;5135657;27;19930;-69
2021/10/21 03:06:29;;;;;;;;;;;;;;;;;;5135150;27;19927;-68
2021/10/21 03:08:56;;;;;;;;;;;;;;;;;;5135321;27;19924;-68
2021/10/21 03:11:22;;;;;;;;;;;;;;;;;;5135216;27;19924;-68
2021/10/21 03:13:48;;;;;;;;;;;;;;;;;;5135213;27;19931;-69
2021/10/21 03:16:15;;;;;;;;;;;;;;;;;;5134861;27;19931;-68
2021/10/21 03:18:41;;;;;;;;;;;;;;;;;;5135430;27;19930;-69
2021/10/21 03:21:07;;;;;;;;;;;;;;;;;;5135001;27;20408;-69
2021/10/21 03:23:33;;;;;;;;;;;;;;;;;;5134954;27;19931;-68
2021/10/21 03:26:00;;;;;;;;;;;;;;;;;;5135237;27;20006;-68
2021/10/21 03:28:26;;;;;;;;;;;;;;;;;;5134654;27;20274;-69
2021/10/21 03:30:52;;;;;;;;;;;;;;;;;;5134808;27;19928;-68
2021/10/21 03:33:19;;;;;;;;;;;;;;;;;;5134873;27;19946;-68
2021/10/21 03:35:45;;;;;;;;;;;;;;;;;;5134800;27;19924;-68
2021/10/21 03:38:11;;;;;;;;;;;;;;;;;;5134880;27;19934;-68
2021/10/21 03:40:37;;;;;;;;;;;;;;;;;;5134642;27;20381;-69
2021/10/21 03:43:04;;;;;;;;;;;;;;;;;;5134621;27;19923;-68
2021/10/21 03:45:30;;;;;;;;;;;;;;;;;;5133794;27;19924;-69
2021/10/21 03:47:57;;;;;;;;;;;;;;;;;;5134463;27;19924;-69
2021/10/21 03:50:23;;;;;;;;;;;;;;;;;;5134512;27;19930;-69
2021/10/21 03:52:49;;;;;;;;;;;;;;;;;;5134735;27;20300;-70
2021/10/21 03:55:15;;;;;;;;;;;;;;;;;;5134155;27;19930;-69
2021/10/21 03:57:42;;;;;;;;;;;;;;;;;;5134760;27;19923;-70
2021/10/21 04:00:08;;;;;;;;;;;;;;;;;;5134209;27;20404;-69
2021/10/21 04:02:35;;;;;;;;;;;;;;;;;;5134567;27;20326;-70
2021/10/21 04:05:01;;;;;;;;;;;;;;;;;;5134558;27;20475;-70
2021/10/21 04:07:27;;;;;;;;;;;;;;;;;;5133805;27;19934;-70
2021/10/21 04:09:53;;;;;;;;;;;;;;;;;;5134420;27;19923;-70
2021/10/21 04:12:20;;;;;;;;;;;;;;;;;;5133686;27;20289;-70
2021/10/21 04:14:46;;;;;;;;;;;;;;;;;;5134053;27;19923;-70
2021/10/21 04:17:12;;;;;;;;;;;;;;;;;;5133949;27;19923;-69
2021/10/21 04:19:39;;;;;;;;;;;;;;;;;;5133887;27;19927;-70
2021/10/21 04:22:05;;;;;;;;;;;;;;;;;;5134262;27;19923;-70
2021/10/21 04:24:31;;;;;;;;;;;;;;;;;;5133632;27;19927;-69
2021/10/21 04:26:58;;;;;;;;;;;;;;;;;;5134133;27;19923;-70
2021/10/21 04:29:24;;;;;;;;;;;;;;;;;;5133504;27;19931;-70
2021/10/21 04:31:50;;;;;;;;;;;;;;;;;;5133896;27;19931;-69
2021/10/21 04:34:16;;;;;;;;;;;;;;;;;;5133861;27;19959;-69
2021/10/21 04:36:43;;;;;;;;;;;;;;;;;;5133722;27;20297;-70
2021/10/21 04:39:09;;;;;;;;;;;;;;;;;;5133643;27;19995;-69
2021/10/21 04:41:35;;;;;;;;;;;;;;;;;;5133549;27;19924;-69
2021/10/21 04:44:02;;;;;;;;;;;;;;;;;;5133621;27;19923;-69
2021/10/21 04:46:28;;;;;;;;;;;;;;;;;;5133679;27;19923;-70
2021/10/21 04:48:54;;;;;;;;;;;;;;;;;;5133586;27;20412;-70
2021/10/21 04:51:21;;;;;;;;;;;;;;;;;;5133198;27;19931;-70
2021/10/21 04:53:47;;;;;;;;;;;;;;;;;;5133628;28;19924;-70
2021/10/21 04:56:13;;;;;;;;;;;;;;;;;;5133095;27;20404;-70
2021/10/21 04:58:40;;;;;;;;;;;;;;;;;;5133265;27;19927;-70
2021/10/21 05:01:06;;;;;;;;;;;;;;;;;;5133494;28;19923;-69
2021/10/21 05:03:32;;;;;;;;;;;;;;;;;;5133327;28;19924;-69
2021/10/21 05:05:58;;;;;;;;;;;;;;;;;;5133439;27;19927;-69
2021/10/21 05:08:25;;;;;;;;;;;;;;;;;;5133329;28;19923;-69
2021/10/21 05:10:51;;;;;;;;;;;;;;;;;;5133380;28;20393;-70
2021/10/21 05:13:17;;;;;;;;;;;;;;;;;;5133016;28;19930;-69
2021/10/21 05:15:44;;;;;;;;;;;;;;;;;;5133524;28;19931;-69
2021/10/21 05:18:10;;;;;;;;;;;;;;;;;;5133264;28;20010;-69
2021/10/21 05:20:38;;;;;;;;;;;;;;;;;;5133232;28;20400;-70
2021/10/21 05:23:04;;;;;;;;;;;;;;;;;;5133081;28;19927;-69
2021/10/21 05:25:30;;;;;;;;;;;;;;;;;;5132952;28;19930;-70
2021/10/21 05:27:57;;;;;;;;;;;;;;;;;;5133376;28;19957;-70
2021/10/21 05:30:23;;;;;;;;;;;;;;;;;;5132811;28;20424;-70
2021/10/21 05:32:49;;;;;;;;;;;;;;;;;;5133076;28;19930;-69
2021/10/21 05:35:16;;;;;;;;;;;;;;;;;;5133110;28;19924;-69
2021/10/21 05:37:42;;;;;;;;;;;;;;;;;;5132959;28;20297;-69
2021/10/21 05:40:08;;;;;;;;;;;;;;;;;;5132918;28;19930;-70
2021/10/21 05:42:35;;;;;;;;;;;;;;;;;;5132968;28;20407;-69
2021/10/21 05:45:01;;;;;;;;;;;;;;;;;;5132983;28;19931;-70
2021/10/21 05:47:27;;;;;;;;;;;;;;;;;;5132817;28;19924;-69
2021/10/21 05:49:54;;;;;;;;;;;;;;;;;;5132835;28;19923;-72
2021/10/21 05:52:24;;;;;;;;;;;;;;;;;;5132608;27;20029;-71
2021/10/21 05:54:50;;;;;;;;;;;;;;;;;;5132869;28;19927;-71
2021/10/21 05:57:17;;;;;;;;;;;;;;;;;;5132870;28;19930;-72
2021/10/21 05:59:43;;;;;;;;;;;;;;;;;;5132722;28;20297;-71
2021/10/21 06:02:09;;;;;;;;;;;;;;;;;;5132480;28;19924;-70
2021/10/21 06:04:36;;;;;;;;;;;;;;;;;;5133081;28;19923;-70
2021/10/21 06:07:02;;;;;;;;;;;;;;;;;;5133286;27;19923;-70
2021/10/21 06:09:28;;;;;;;;;;;;;;;;;;5136126;27;19928;-70
2021/10/21 06:11:55;;;;;;;;;;;;;;;;;;5136726;27;19924;-71
2021/10/21 06:14:21;;;;;;;;;;;;;;;;;;5135986;27;19930;-70
2021/10/21 06:16:48;;;;;;;;;;;;;;;;;;5136591;27;19930;-70
2021/10/21 06:19:15;;;;;;;;;;;;;;;;;;5136039;27;20296;-70
2021/10/21 06:21:45;;;;;;;;;;;;;;;;;;5135937;27;19923;-70
2021/10/21 06:24:11;;;;;;;;;;;;;;;;;;5135858;27;19933;-71
2021/10/21 06:26:38;;;;;;;;;;;;;;;;;;5136452;27;19923;-70
2021/10/21 06:29:04;;;;;;;;;;;;;;;;;;5135968;27;20374;-70
2021/10/21 06:31:30;;;;;;;;;;;;;;;;;;5136160;27;19939;-71
2021/10/21 06:33:57;;;;;;;;;;;;;;;;;;5136144;27;19930;-71
2021/10/21 06:36:25;;;;;;;;;;;;;;;;;;5135724;27;19923;-71
2021/10/21 06:38:51;;;;;;;;;;;;;;;;;;5135870;27;19949;-71
2021/10/21 06:41:18;;;;;;;;;;;;;;;;;;5135865;27;19930;-71
2021/10/21 06:43:44;;;;;;;;;;;;;;;;;;5135687;27;19923;-71
2021/10/21 06:46:10;;;;;;;;;;;;;;;;;;5135407;27;19928;-71
2021/10/21 06:48:36;;;;;;;;;;;;;;;;;;5135961;27;19929;-71
2021/10/21 06:51:03;;;;;;;;;;;;;;;;;;5135684;27;20400;-71
2021/10/21 06:53:29;;;;;;;;;;;;;;;;;;5135215;27;19933;-68
2021/10/21 06:55:55;;;;;;;;;;;;;;;;;;5135946;27;19930;-70
2021/10/21 06:58:22;;;;;;;;;;;;;;;;;;5135269;27;19988;-70
2021/10/21 07:00:50;;;;;;;;;;;;;;;;;;5134783;27;20456;-70
2021/10/21 07:03:16;;;;;;;;;;;;;;;;;;5135469;27;19933;-70
2021/10/21 07:05:43;;;;;;;;;;;;;;;;;;5135406;27;19930;-70
2021/10/21 07:08:09;;;;;;;;;;;;;;;;;;5135059;27;19949;-70
2021/10/21 07:10:36;;;;;;;;;;;;;;;;;;5135324;27;19923;-70
2021/10/21 07:13:04;;;;;;;;;;;;;;;;;;5135504;27;19930;-70
2021/10/21 07:15:30;;;;;;;;;;;;;;;;;;5134981;27;19952;-70
2021/10/21 07:17:57;;;;;;;;;;;;;;;;;;5134902;27;19924;-69
2021/10/21 07:20:23;;;;;;;;;;;;;;;;;;5135171;27;19972;-69
2021/10/21 07:22:49;;;;;;;;;;;;;;;;;;5134937;27;20389;-70
2021/10/21 07:25:16;;;;;;;;;;;;;;;;;;5134646;27;20464;-69
2021/10/21 07:27:42;;;;;;;;;;;;;;;;;;5134844;27;19930;-70
2021/10/21 07:30:09;;;;;;;;;;;;;;;;;;5134877;27;19930;-70
2021/10/21 07:32:36;;;;;;;;;;;;;;;;;;5134872;27;20289;-70
2021/10/21 07:35:03;;;;;;;;;;;;;;;;;;5134826;27;19923;-70
2021/10/21 07:37:29;;;;;;;;;;;;;;;;;;5134649;27;19935;-70
2021/10/21 07:39:55;;;;;;;;;;;;;;;;;;5134403;27;19923;-70
2021/10/21 07:42:22;;;;;;;;;;;;;;;;;;5134638;27;19937;-70
2021/10/21 07:44:48;;;;;;;;;;;;;;;;;;5134861;27;19929;-69
2021/10/21 07:47:14;;;;;;;;;;;;;;;;;;5134232;27;19923;-70
2021/10/21 07:49:40;;;;;;;;;;;;;;;;;;5134769;27;19964;-70
2021/10/21 07:52:07;;;;;;;;;;;;;;;;;;5134261;27;20397;-70
2021/10/21 07:54:33;;;;;;;;;;;;;;;;;;5134094;27;19923;-69
2021/10/21 07:56:59;;;;;;;;;;;;;;;;;;5134677;27;19923;-70
2021/10/21 07:59:26;;;;;;;;;;;;;;;;;;5133886;27;19930;-69
2021/10/21 08:01:52;;;;;;;;;;;;;;;;;;5134475;27;19923;-70
2021/10/21 08:04:18;;;;;;;;;;;;;;;;;;5133946;27;20369;-70
2021/10/21 08:06:45;;;;;;;;;;;;;;;;;;5134485;27;19945;-69
2021/10/21 08:09:11;;;;;;;;;;;;;;;;;;5134114;27;19934;-69
2021/10/21 08:11:37;;;;;;;;;;;;;;;;;;5133980;27;19930;-69
2021/10/21 08:14:03;;;;;;;;;;;;;;;;;;5134259;27;19923;-69
2021/10/21 08:16:30;;;;;;;;;;;;;;;;;;5133740;27;20293;-69
2021/10/21 08:18:56;;;;;;;;;;;;;;;;;;5133945;27;19930;-70
2021/10/21 08:21:22;;;;;;;;;;;;;;;;;;5133947;27;19930;-70
2021/10/21 08:23:53;;;;;;;;;;;;;;;;;;5133724;27;19923;-71
2021/10/21 08:26:20;;;;;;;;;;;;;;;;;;5133969;27;19924;-71
2021/10/21 08:28:47;;;;;;;;;;;;;;;;;;5134402;27;19923;-71
2021/10/21 08:31:13;;;;;;;;;;;;;;;;;;5133435;27;19955;-71
2021/10/21 08:33:40;;;;;;;;;;;;;;;;;;5133474;27;19924;-71
2021/10/21 08:36:10;;;;;;;;;;;;;;;;;;5133588;27;19923;-70
2021/10/21 08:38:37;;;;;;;;;;;;;;;;;;5133739;27;20051;-70
2021/10/21 08:41:03;;;;;;;;;;;;;;;;;;5133941;27;19930;-70
2021/10/21 08:43:29;;;;;;;;;;;;;;;;;;5133494;27;19927;-71
2021/10/21 08:45:56;;;;;;;;;;;;;;;;;;5133488;27;19930;-70
2021/10/21 08:48:22;;;;;;;;;;;;;;;;;;5133210;27;19972;-71
2021/10/21 08:50:49;;;;;;;;;;;;;;;;;;5133777;27;19924;-71
2021/10/21 08:53:15;;;;;;;;;;;;;;;;;;5133496;27;19930;-70
2021/10/21 08:55:41;;;;;;;;;;;;;;;;;;5133218;27;20274;-71
2021/10/21 08:58:08;;;;;;;;;;;;;;;;;;5133216;27;19924;-71
2021/10/21 09:00:34;;;;;;;;;;;;;;;;;;5133720;27;19924;-71
2021/10/21 09:03:02;;;;;;;;;;;;;;;;;;5133297;27;20415;-71
2021/10/21 09:05:32;;;;;;;;;;;;;;;;;;5133201;28;20225;-71
2021/10/21 09:07:58;;;;;;;;;;;;;;;;;;5133714;27;19924;-71
2021/10/21 09:10:25;;;;;;;;;;;;;;;;;;5133353;27;20033;-71
2021/10/21 09:12:51;;;;;;;;;;;;;;;;;;5133176;28;19945;-71
2021/10/21 09:15:17;;;;;;;;;;;;;;;;;;5132915;28;19923;-71
2021/10/21 09:17:44;;;;;;;;;;;;;;;;;;5133538;28;19946;-70
2021/10/21 09:20:10;;;;;;;;;;;;;;;;;;5132930;28;19924;-71
2021/10/21 09:22:38;;;;;;;;;;;;;;;;;;5133476;28;19930;-70
2021/10/21 09:25:05;;;;;;;;;;;;;;;;;;5133129;28;19930;-70
2021/10/21 09:27:31;;;;;;;;;;;;;;;;;;5133126;28;19930;-70
2021/10/21 09:29:57;;;;;;;;;;;;;;;;;;5133406;28;19950;-71
2021/10/21 09:32:23;;;;;;;;;;;;;;;;;;5132912;28;19923;-72
2021/10/21 09:34:51;;;;;;;;;;;;;;;;;;5133200;28;19931;-71
2021/10/21 09:37:17;;;;;;;;;;;;;;;;;;5132797;28;20312;-72
2021/10/21 09:39:43;;;;;;;;;;;;;;;;;;5132953;28;19931;-71
2021/10/21 09:42:09;;;;;;;;;;;;;;;;;;5133354;27;19930;-71
2021/10/21 09:44:36;;;;;;;;;;;;;;;;;;5136922;27;19924;-71
2021/10/21 09:47:02;;;;;;;;;;;;;;;;;;5137167;27;19928;-70
2021/10/21 09:49:32;;;;;;;;;;;;;;;;;;5136557;27;20404;-72
2021/10/21 09:51:58;;;;;;;;;;;;;;;;;;5137152;27;19923;-72
2021/10/21 09:54:24;;;;;;;;;;;;;;;;;;5136306;27;19924;-71
2021/10/21 09:56:51;;;;;;;;;;;;;;;;;;5137078;27;19923;-72
2021/10/21 09:59:17;;;;;;;;;;;;;;;;;;5136448;27;19923;-71
2021/10/21 10:01:43;;;;;;;;;;;;;;;;;;5136575;27;19924;-72
2021/10/21 10:04:10;;;;;;;;;;;;;;;;;;5136369;27;20450;-72
2021/10/21 10:06:36;;;;;;;;;;;;;;;;;;5136477;27;19924;-71
2021/10/21 10:09:02;;;;;;;;;;;;;;;;;;5136831;27;19927;-72
2021/10/21 10:11:29;;;;;;;;;;;;;;;;;;5136492;27;20595;-72
2021/10/21 10:13:55;;;;;;;;;;;;;;;;;;5136236;27;19937;-72
2021/10/21 10:16:22;;;;;;;;;;;;;;;;;;5136424;27;19924;-71
2021/10/21 10:18:48;;;;;;;;;;;;;;;;;;5136634;27;19924;-71
2021/10/21 10:21:14;;;;;;;;;;;;;;;;;;5136325;27;19947;-72
2021/10/21 10:23:41;;;;;;;;;;;;;;;;;;5136153;27;20387;-71
2021/10/21 10:26:07;;;;;;;;;;;;;;;;;;5136211;27;19930;-70
2021/10/21 10:28:33;;;;;;;;;;;;;;;;;;5136192;27;19927;-71
2021/10/21 10:31:00;;;;;;;;;;;;;;;;;;5136428;27;19924;-71
2021/10/21 10:33:26;;;;;;;;;;;;;;;;;;5135541;27;20423;-71
2021/10/21 10:35:52;;;;;;;;;;;;;;;;;;5136259;27;19923;-71
2021/10/21 10:38:18;;;;;;;;;;;;;;;;;;5136005;27;19931;-71
2021/10/21 10:40:45;;;;;;;;;;;;;;;;;;5135857;27;19930;-71
2021/10/21 10:43:11;;;;;;;;;;;;;;;;;;5135827;27;19923;-70
2021/10/21 10:45:38;;;;;;;;;;;;;;;;;;5135699;27;20392;-71
2021/10/21 10:48:04;;;;;;;;;;;;;;;;;;5135755;27;19923;-71
2021/10/21 10:50:30;;;;;;;;;;;;;;;;;;5135792;27;19923;-71
2021/10/21 10:52:58;;;;;;;;;;;;;;;;;;5135491;27;19927;-71
2021/10/21 10:55:24;;;;;;;;;;;;;;;;;;5135285;27;20018;-71
2021/10/21 10:57:51;;;;;;;;;;;;;;;;;;5135829;27;19930;-71
2021/10/21 11:00:17;;;;;;;;;;;;;;;;;;5135143;27;19923;-71
2021/10/21 11:02:43;;;;;;;;;;;;;;;;;;5135433;27;20282;-72
2021/10/21 11:05:10;;;;;;;;;;;;;;;;;;5135243;27;19923;-71
2021/10/21 11:07:36;;;;;;;;;;;;;;;;;;5135817;27;19927;-71
2021/10/21 11:10:02;;;;;;;;;;;;;;;;;;5135783;27;19927;-71
2021/10/21 11:12:29;;;;;;;;;;;;;;;;;;5134845;27;20697;-71
2021/10/21 11:14:55;;;;;;;;;;;;;;;;;;5135217;27;19923;-70
2021/10/21 11:17:21;;;;;;;;;;;;;;;;;;5135028;27;19968;-73
2021/10/21 11:19:48;;;;;;;;;;;;;;;;;;5135158;27;19930;-71
2021/10/21 11:22:14;;;;;;;;;;;;;;;;;;5134817;27;19924;-71
2021/10/21 11:24:41;;;;;;;;;;;;;;;;;;5135274;27;19923;-72
2021/10/21 11:27:07;;;;;;;;;;;;;;;;;;5135322;27;19931;-71
2021/10/21 11:29:34;;;;;;;;;;;;;;;;;;5134715;27;19928;-71
2021/10/21 11:32:00;;;;;;;;;;;;;;;;;;5134875;27;19923;-71
2021/10/21 11:34:27;;;;;;;;;;;;;;;;;;5134613;27;19976;-71
2021/10/21 11:36:53;;;;;;;;;;;;;;;;;;5134793;27;19935;-71
2021/10/21 11:39:19;;;;;;;;;;;;;;;;;;5134742;27;20289;-71
2021/10/21 11:41:46;;;;;;;;;;;;;;;;;;5134702;27;19937;-71
2021/10/21 11:44:12;;;;;;;;;;;;;;;;;;5134723;27;19927;-71
2021/10/21 11:46:38;;;;;;;;;;;;;;;;;;5134834;27;19924;-71
2021/10/21 11:49:05;;;;;;;;;;;;;;;;;;5134414;27;19924;-72
2021/10/21 11:51:31;;;;;;;;;;;;;;;;;;5134640;27;19924;-72
2021/10/21 11:53:58;;;;;;;;;;;;;;;;;;5134391;27;20424;-71
2021/10/21 11:56:27;;;;;;;;;;;;;;;;;;5134186;27;20014;-71
2021/10/21 11:58:57;;;;;;;;;;;;;;;;;;5134160;27;20163;-70
2021/10/21 12:01:23;;;;;;;;;;;;;;;;;;5134387;27;20000;-70
2021/10/21 12:03:51;;;;;;;;;;;;;;;;;;5134186;27;20428;-71
2021/10/21 12:06:17;;;;;;;;;;;;;;;;;;5133276;27;19949;-71
2021/10/21 12:08:43;;;;;;;;;;;;;;;;;;5134445;27;19935;-71
2021/10/21 12:11:09;;;;;;;;;;;;;;;;;;5134237;27;20294;-71
2021/10/21 12:13:36;;;;;;;;;;;;;;;;;;5134008;27;19923;-72
2021/10/21 12:16:02;;;;;;;;;;;;;;;;;;5134265;27;19924;-71
2021/10/21 12:18:30;;;;;;;;;;;;;;;;;;5133709;27;19931;-71
2021/10/21 12:20:56;;;;;;;;;;;;;;;;;;5134191;27;19923;-71
2021/10/21 12:23:27;;;;;;;;;;;;;;;;;;5134048;27;19924;-71
2021/10/21 12:25:53;;;;;;;;;;;;;;;;;;5134243;27;20305;-71
2021/10/21 12:28:20;;;;;;;;;;;;;;;;;;5133620;27;19924;-70
2021/10/21 12:30:46;;;;;;;;;;;;;;;;;;5133712;27;19924;-71
2021/10/21 12:33:12;;;;;;;;;;;;;;;;;;5133559;27;19934;-74
2021/10/21 12:35:39;;;;;;;;;;;;;;;;;;5133558;27;20021;-73
2021/10/21 12:38:05;;;;;;;;;;;;;;;;;;5133947;27;19924;-71
2021/10/21 12:40:31;;;;;;;;;;;;;;;;;;5133761;27;19954;-71
2021/10/21 12:42:58;;;;;;;;;;;;;;;;;;5133600;27;19930;-71
2021/10/21 12:45:25;;;;;;;;;;;;;;;;;;5133611;27;19935;-71
2021/10/21 12:47:51;;;;;;;;;;;;;;;;;;5133786;27;19971;-72
2021/10/21 12:50:18;;;;;;;;;;;;;;;;;;5133166;27;19930;-72
2021/10/21 12:52:44;;;;;;;;;;;;;;;;;;5133719;27;19931;-72
2021/10/21 12:55:11;;;;;;;;;;;;;;;;;;5136009;27;19966;-71
2021/10/21 12:57:37;;;;;;;;;;;;;;;;;;5135204;27;19924;-71
2021/10/21 13:00:03;;;;;;;;;;;;;;;;;;5133266;27;20389;-72
2021/10/21 13:02:30;;;;;;;;;;;;;;;;;;5133093;27;19924;-72
2021/10/21 13:04:57;;;;;;;;;;;;;;;;;;5133565;28;20004;-72
2021/10/21 13:07:23;;;;;;;;;;;;;;;;;;5133037;28;20023;-71
2021/10/21 13:09:49;;;;;;;;;;;;;;;;;;5133528;28;19946;-71
2021/10/21 13:12:18;;;;;;;;;;;;;;;;;;5133082;28;19923;-73
2021/10/21 13:14:44;;;;;;;;;;;;;;;;;;5133512;28;19981;-73
2021/10/21 13:17:10;;;;;;;;;;;;;;;;;;5135262;27;20297;-71
2021/10/21 13:19:37;;;;;;;;;;;;;;;;;;5137498;27;19924;-72
2021/10/21 13:22:03;;;;;;;;;;;;;;;;;;5137692;27;19931;-72
2021/10/21 13:24:30;;;;;;;;;;;;;;;;;;5137244;27;20400;-73
2021/10/21 13:26:56;;;;;;;;;;;;;;;;;;5137316;27;19927;-73
2021/10/21 13:29:23;;;;;;;;;;;;;;;;;;5137429;27;19924;-73
2021/10/21 13:31:49;;;;;;;;;;;;;;;;;;5137200;27;19923;-73
2021/10/21 13:34:15;;;;;;;;;;;;;;;;;;5136929;27;20010;-73
2021/10/21 13:36:42;;;;;;;;;;;;;;;;;;5137424;27;19930;-73
2021/10/21 13:39:08;;;;;;;;;;;;;;;;;;5137110;27;20285;-73
2021/10/21 13:41:36;;;;;;;;;;;;;;;;;;5137530;27;19992;-72
2021/10/21 13:44:02;;;;;;;;;;;;;;;;;;5137236;27;19923;-72
2021/10/21 13:46:29;;;;;;;;;;;;;;;;;;5136770;27;20723;-73
2021/10/21 13:48:55;;;;;;;;;;;;;;;;;;5136807;27;20553;-72
2021/10/21 13:51:22;;;;;;;;;;;;;;;;;;5136657;27;19923;-73
2021/10/21 13:53:48;;;;;;;;;;;;;;;;;;5137113;27;19923;-72
2021/10/21 13:56:14;;;;;;;;;;;;;;;;;;5136426;27;20393;-72
2021/10/21 13:58:41;;;;;;;;;;;;;;;;;;5136790;27;19930;-72
2021/10/21 14:01:07;;;;;;;;;;;;;;;;;;5136593;27;20267;-72
2021/10/21 14:03:33;;;;;;;;;;;;;;;;;;5136307;27;20022;-72
2021/10/21 14:06:00;;;;;;;;;;;;;;;;;;5136940;27;19924;-72
2021/10/21 14:08:26;;;;;;;;;;;;;;;;;;5136345;27;20301;-73
2021/10/21 14:10:53;;;;;;;;;;;;;;;;;;5136542;27;19969;-72
2021/10/21 14:13:19;;;;;;;;;;;;;;;;;;5136192;27;20395;-72
2021/10/21 14:15:47;;;;;;;;;;;;;;;;;;5136692;27;19923;-72
2021/10/21 14:18:14;;;;;;;;;;;;;;;;;;5137300;27;20001;-73
2021/10/21 14:20:40;;;;;;;;;;;;;;;;;;5136360;27;19930;-72
2021/10/21 14:23:06;;;;;;;;;;;;;;;;;;5136626;27;19923;-72
2021/10/21 14:25:33;;;;;;;;;;;;;;;;;;5135949;27;20294;-72
2021/10/21 14:27:59;;;;;;;;;;;;;;;;;;5135520;27;19923;-73
2021/10/21 14:30:25;;;;;;;;;;;;;;;;;;5136310;27;20000;-73
2021/10/21 14:32:52;;;;;;;;;;;;;;;;;;5136462;27;19945;-72
2021/10/21 14:35:18;;;;;;;;;;;;;;;;;;5135701;27;19923;-71
2021/10/21 14:37:46;;;;;;;;;;;;;;;;;;5135487;27;19929;-72
2021/10/21 14:40:12;;;;;;;;;;;;;;;;;;5134130;27;19980;-71
2021/10/21 14:42:39;;;;;;;;;;;;;;;;;;5135000;27;19931;-72
2021/10/21 14:45:06;;;;;;;;;;;;;;;;;;5135659;27;19927;-71
2021/10/21 14:47:32;;;;;;;;;;;;;;;;;;5135610;27;20284;-72
2021/10/21 14:49:58;;;;;;;;;;;;;;;;;;5135459;27;19923;-73
2021/10/21 14:52:24;;;;;;;;;;;;;;;;;;5135097;27;19929;-72
2021/10/21 14:54:51;;;;;;;;;;;;;;;;;;5135906;27;19924;-72
2021/10/21 14:57:17;;;;;;;;;;;;;;;;;;5135421;27;20373;-72
2021/10/21 14:59:43;;;;;;;;;;;;;;;;;;5135449;27;19928;-72
2021/10/21 15:02:10;;;;;;;;;;;;;;;;;;5135522;27;19930;-72
2021/10/21 15:04:37;;;;;;;;;;;;;;;;;;5135501;27;20288;-73
2021/10/21 15:12:55;;;;;;;;;;;;;;;;;;5086560;27;19980;-72
2021/10/21 15:23:48;;;;;;;;;;;;;;;;;;5051596;28;19921;-72
2021/10/21 15:26:14;;;;;;;;;;;;;;;;;;5051381;28;19924;-72
2021/10/21 15:28:40;;;;;;;;;;;;;;;;;;5086964;27;20397;-72
2021/10/21 15:31:07;;;;;;;;;;;;;;;;;;5135130;27;19923;-72
2021/10/21 15:33:33;;;;;;;;;;;;;;;;;;5134907;27;19923;-72
2021/10/21 15:35:59;;;;;;;;;;;;;;;;;;5135149;27;20118;-72
2021/10/21 15:38:29;;;;;;;;;;;;;;;;;;5134809;27;19947;-72
2021/10/21 15:40:55;;;;;;;;;;;;;;;;;;5133986;27;20066;-72
2021/10/21 15:43:21;;;;;;;;;;;;;;;;;;5134444;27;19928;-72
2021/10/21 15:45:51;;;;;;;;;;;;;;;;;;5134855;27;19946;-73
2021/10/21 15:48:24;;;;;;;;;;;;;;;;;;5134662;27;19923;-72
2021/10/21 15:51:12;;;;;;;;;;;;;;;;;;5134592;27;19929;-70
2021/10/21 16:12:56;;;;;;;;;;;;;;;;;;5134353;27;19973;-70
2021/10/21 16:15:23;;;;;;;;;;;;;;;;;;5133846;27;19931;-70
2021/10/21 16:17:55;;;;;;;;;;;;;;;;;;5134436;27;19930;-71
2021/10/21 16:20:25;;;;;;;;;;;;;;;;;;5134089;27;19976;-71
2021/10/21 16:22:55;;;;;;;;;;;;;;;;;;5134052;27;20293;-71
2021/10/21 16:25:50;;;;;;;;;;;;;;;;;;5133635;27;19924;-71
2021/10/21 16:28:17;;;;;;;;;;;;;;;;;;5133952;27;19933;-71
2021/10/21 16:30:43;;;;;;;;;;;;;;;;;;5133901;27;20251;-71
2021/10/21 16:33:11;;;;;;;;;;;;;;;;;;5133528;27;19930;-71
2021/10/21 16:35:39;;;;;;;;;;;;;;;;;;5133990;27;19927;-71
2021/10/21 16:38:05;;;;;;;;;;;;;;;;;;5134025;27;19923;-71
2021/10/21 16:40:35;;;;;;;;;;;;;;;;;;5133515;27;20498;-71
2021/10/21 16:43:01;;;;;;;;;;;;;;;;;;5134183;27;19931;-71
2021/10/21 16:45:28;;;;;;;;;;;;;;;;;;5133566;27;19930;-70
2021/10/21 16:47:55;;;;;;;;;;;;;;;;;;5133587;27;19930;-71
2021/10/21 16:50:21;;;;;;;;;;;;;;;;;;5133566;27;19930;-70
2021/10/21 16:52:49;;;;;;;;;;;;;;;;;;5133419;27;20304;-71
2021/10/21 16:55:15;;;;;;;;;;;;;;;;;;5133150;27;20331;-74
2021/10/21 16:57:41;;;;;;;;;;;;;;;;;;5133450;27;19930;-71
2021/10/21 17:00:08;;;;;;;;;;;;;;;;;;5133364;27;19930;-71
2021/10/21 17:02:36;;;;;;;;;;;;;;;;;;5133491;27;19924;-72
2021/10/21 17:05:03;;;;;;;;;;;;;;;;;;5133645;27;20338;-72
2021/10/21 17:07:30;;;;;;;;;;;;;;;;;;5133522;28;20308;-73
2021/10/21 17:09:56;;;;;;;;;;;;;;;;;;5133430;28;19930;-73
2021/10/21 17:12:23;;;;;;;;;;;;;;;;;;5132875;28;20377;-73
2021/10/21 17:14:49;;;;;;;;;;;;;;;;;;5133376;28;19923;-73